sensor_id;sensor_type;location;lat;lon;timestamp;P1;durP1;ratioP1;P2;durP2;ratioP2
62574;SDS011;53112;45.602;11.904;2022-09-09T00:01:56;6.32;;;4.00;;
62574;SDS011;53112;45.602;11.904;2022-09-09T00:04:35;6.25;;;3.38;;
62574;SDS011;53112;45.602;11.904;2022-09-09T00:07:16;5.43;;;3.70;;
62574;SDS011;53112;45.602;11.904;2022-09-09T00:09:53;5.78;;;3.50;;
62574;SDS011;53112;45.602;11.904;2022-09-09T00:12:33;5.30;;;3.10;;
62574;SDS011;53112;45.602;11.904;2022-09-09T00:21:20;6.30;;;3.80;;
62574;SDS011;53112;45.602;11.904;2022-09-09T00:24:04;5.67;;;3.37;;
62574;SDS011;53112;45.602;11.904;2022-09-09T00:27:01;5.18;;;3.47;;
62574;SDS011;53112;45.602;11.904;2022-09-09T00:32:11;4.78;;;3.58;;
62574;SDS011;53112;45.602;11.904;2022-09-09T00:34:53;5.70;;;4.00;;
62574;SDS011;53112;45.602;11.904;2022-09-09T00:37:44;7.55;;;4.40;;
62574;SDS011;53112;45.602;11.904;2022-09-09T00:43:04;8.07;;;4.47;;
62574;SDS011;53112;45.602;11.904;2022-09-09T00:45:41;6.80;;;4.10;;
62574;SDS011;53112;45.602;11.904;2022-09-09T00:51:08;7.05;;;4.28;;
62574;SDS011;53112;45.602;11.904;2022-09-09T00:54:13;6.50;;;4.68;;
62574;SDS011;53112;45.602;11.904;2022-09-09T00:59:22;7.75;;;4.97;;
62574;SDS011;53112;45.602;11.904;2022-09-09T01:02:13;8.38;;;4.80;;
62574;SDS011;53112;45.602;11.904;2022-09-09T01:05:07;6.72;;;4.72;;
62574;SDS011;53112;45.602;11.904;2022-09-09T01:10:36;6.82;;;4.20;;
62574;SDS011;53112;45.602;11.904;2022-09-09T01:13:13;5.78;;;4.07;;
62574;SDS011;53112;45.602;11.904;2022-09-09T01:15:47;7.05;;;4.00;;
62574;SDS011;53112;45.602;11.904;2022-09-09T01:18:15;6.10;;;3.83;;
62574;SDS011;53112;45.602;11.904;2022-09-09T01:29:12;7.40;;;4.57;;
62574;SDS011;53112;45.602;11.904;2022-09-09T01:32:37;7.05;;;4.10;;
62574;SDS011;53112;45.602;11.904;2022-09-09T01:34:47;7.47;;;4.47;;
62574;SDS011;53112;45.602;11.904;2022-09-09T01:37:13;9.52;;;4.75;;
62574;SDS011;53112;45.602;11.904;2022-09-09T01:39:40;8.88;;;4.85;;
62574;SDS011;53112;45.602;11.904;2022-09-09T01:42:09;8.07;;;4.70;;
62574;SDS011;53112;45.602;11.904;2022-09-09T01:44:38;8.77;;;4.88;;
62574;SDS011;53112;45.602;11.904;2022-09-09T01:47:05;7.93;;;5.15;;
62574;SDS011;53112;45.602;11.904;2022-09-09T01:49:31;9.90;;;5.50;;
62574;SDS011;53112;45.602;11.904;2022-09-09T01:52:01;8.25;;;5.03;;
62574;SDS011;53112;45.602;11.904;2022-09-09T01:54:28;8.25;;;5.05;;
62574;SDS011;53112;45.602;11.904;2022-09-09T01:59:50;8.23;;;5.03;;
62574;SDS011;53112;45.602;11.904;2022-09-09T02:05:17;9.00;;;5.00;;
62574;SDS011;53112;45.602;11.904;2022-09-09T02:07:51;8.07;;;4.80;;
62574;SDS011;53112;45.602;11.904;2022-09-09T02:10:30;7.40;;;4.40;;
62574;SDS011;53112;45.602;11.904;2022-09-09T02:13:03;8.45;;;4.43;;
62574;SDS011;53112;45.602;11.904;2022-09-09T02:18:04;8.40;;;4.10;;
62574;SDS011;53112;45.602;11.904;2022-09-09T02:20:34;7.35;;;3.97;;
62574;SDS011;53112;45.602;11.904;2022-09-09T02:23:03;7.93;;;3.80;;
62574;SDS011;53112;45.602;11.904;2022-09-09T02:25:30;6.93;;;3.75;;
62574;SDS011;53112;45.602;11.904;2022-09-09T02:27:58;6.70;;;3.50;;
62574;SDS011;53112;45.602;11.904;2022-09-09T02:30:26;5.47;;;3.35;;
62574;SDS011;53112;45.602;11.904;2022-09-09T02:32:57;7.43;;;3.40;;
62574;SDS011;53112;45.602;11.904;2022-09-09T02:35:26;7.40;;;3.60;;
62574;SDS011;53112;45.602;11.904;2022-09-09T02:37:56;4.68;;;3.40;;
62574;SDS011;53112;45.602;11.904;2022-09-09T02:40:29;9.20;;;3.50;;
62574;SDS011;53112;45.602;11.904;2022-09-09T02:42:55;4.78;;;2.95;;
62574;SDS011;53112;45.602;11.904;2022-09-09T02:45:29;8.07;;;3.35;;
62574;SDS011;53112;45.602;11.904;2022-09-09T02:48:17;5.20;;;3.27;;
62574;SDS011;53112;45.602;11.904;2022-09-09T02:50:56;4.20;;;3.05;;
62574;SDS011;53112;45.602;11.904;2022-09-09T02:53:43;5.30;;;3.40;;
62574;SDS011;53112;45.602;11.904;2022-09-09T02:56:23;6.57;;;3.20;;
62574;SDS011;53112;45.602;11.904;2022-09-09T02:58:54;5.50;;;3.00;;
62574;SDS011;53112;45.602;11.904;2022-09-09T03:01:20;5.00;;;2.92;;
62574;SDS011;53112;45.602;11.904;2022-09-09T03:03:46;5.22;;;3.10;;
62574;SDS011;53112;45.602;11.904;2022-09-09T03:06:13;6.65;;;3.10;;
62574;SDS011;53112;45.602;11.904;2022-09-09T03:08:39;5.45;;;2.95;;
62574;SDS011;53112;45.602;11.904;2022-09-09T03:11:05;5.80;;;3.00;;
62574;SDS011;53112;45.602;11.904;2022-09-09T03:13:34;5.03;;;2.97;;
62574;SDS011;53112;45.602;11.904;2022-09-09T03:16:00;4.75;;;2.97;;
62574;SDS011;53112;45.602;11.904;2022-09-09T03:18:26;3.78;;;2.50;;
62574;SDS011;53112;45.602;11.904;2022-09-09T03:20:53;4.90;;;2.70;;
62574;SDS011;53112;45.602;11.904;2022-09-09T03:23:19;5.45;;;2.55;;
62574;SDS011;53112;45.602;11.904;2022-09-09T03:25:47;4.28;;;2.50;;
62574;SDS011;53112;45.602;11.904;2022-09-09T03:28:14;3.85;;;2.83;;
62574;SDS011;53112;45.602;11.904;2022-09-09T03:30:40;4.57;;;2.50;;
62574;SDS011;53112;45.602;11.904;2022-09-09T03:33:06;3.47;;;2.20;;
62574;SDS011;53112;45.602;11.904;2022-09-09T03:35:32;6.18;;;2.65;;
62574;SDS011;53112;45.602;11.904;2022-09-09T03:37:58;7.03;;;2.92;;
62574;SDS011;53112;45.602;11.904;2022-09-09T03:40:26;4.20;;;2.60;;
62574;SDS011;53112;45.602;11.904;2022-09-09T03:42:52;2.97;;;2.67;;
62574;SDS011;53112;45.602;11.904;2022-09-09T03:45:18;4.38;;;2.50;;
62574;SDS011;53112;45.602;11.904;2022-09-09T03:47:43;4.78;;;2.60;;
62574;SDS011;53112;45.602;11.904;2022-09-09T03:50:09;3.45;;;2.58;;
62574;SDS011;53112;45.602;11.904;2022-09-09T03:52:36;6.07;;;2.80;;
62574;SDS011;53112;45.602;11.904;2022-09-09T03:55:04;5.85;;;2.85;;
62574;SDS011;53112;45.602;11.904;2022-09-09T03:57:31;5.90;;;2.95;;
62574;SDS011;53112;45.602;11.904;2022-09-09T04:00:01;5.13;;;2.80;;
62574;SDS011;53112;45.602;11.904;2022-09-09T04:02:32;4.15;;;2.60;;
62574;SDS011;53112;45.602;11.904;2022-09-09T04:04:58;4.40;;;2.90;;
62574;SDS011;53112;45.602;11.904;2022-09-09T04:07:25;3.88;;;2.60;;
62574;SDS011;53112;45.602;11.904;2022-09-09T04:09:52;4.28;;;2.60;;
62574;SDS011;53112;45.602;11.904;2022-09-09T04:12:19;4.88;;;2.63;;
62574;SDS011;53112;45.602;11.904;2022-09-09T04:14:46;6.50;;;2.70;;
62574;SDS011;53112;45.602;11.904;2022-09-09T04:17:12;4.20;;;2.60;;
62574;SDS011;53112;45.602;11.904;2022-09-09T04:19:38;4.35;;;2.70;;
62574;SDS011;53112;45.602;11.904;2022-09-09T04:22:04;4.57;;;2.55;;
62574;SDS011;53112;45.602;11.904;2022-09-09T04:24:30;4.82;;;2.97;;
62574;SDS011;53112;45.602;11.904;2022-09-09T04:26:56;4.85;;;2.75;;
62574;SDS011;53112;45.602;11.904;2022-09-09T04:29:22;4.68;;;2.92;;
62574;SDS011;53112;45.602;11.904;2022-09-09T04:31:48;4.60;;;3.17;;
62574;SDS011;53112;45.602;11.904;2022-09-09T04:34:14;6.30;;;3.28;;
62574;SDS011;53112;45.602;11.904;2022-09-09T04:36:40;4.47;;;3.00;;
62574;SDS011;53112;45.602;11.904;2022-09-09T04:39:06;5.70;;;3.00;;
62574;SDS011;53112;45.602;11.904;2022-09-09T04:41:32;4.40;;;3.00;;
62574;SDS011;53112;45.602;11.904;2022-09-09T04:43:58;5.22;;;3.00;;
62574;SDS011;53112;45.602;11.904;2022-09-09T04:46:26;6.15;;;3.08;;
62574;SDS011;53112;45.602;11.904;2022-09-09T04:48:52;5.50;;;3.40;;
62574;SDS011;53112;45.602;11.904;2022-09-09T04:51:19;6.35;;;3.30;;
62574;SDS011;53112;45.602;11.904;2022-09-09T04:53:45;5.47;;;3.00;;
62574;SDS011;53112;45.602;11.904;2022-09-09T04:56:15;5.82;;;3.08;;
62574;SDS011;53112;45.602;11.904;2022-09-09T04:58:42;6.40;;;3.20;;
62574;SDS011;53112;45.602;11.904;2022-09-09T05:01:09;6.60;;;2.95;;
62574;SDS011;53112;45.602;11.904;2022-09-09T05:03:39;6.05;;;3.40;;
62574;SDS011;53112;45.602;11.904;2022-09-09T05:06:12;5.03;;;3.17;;
62574;SDS011;53112;45.602;11.904;2022-09-09T05:08:42;5.13;;;3.22;;
62574;SDS011;53112;45.602;11.904;2022-09-09T05:13:55;5.32;;;3.42;;
62574;SDS011;53112;45.602;11.904;2022-09-09T05:16:21;8.30;;;4.20;;
62574;SDS011;53112;45.602;11.904;2022-09-09T05:18:48;5.03;;;3.40;;
62574;SDS011;53112;45.602;11.904;2022-09-09T05:21:15;5.50;;;3.47;;
62574;SDS011;53112;45.602;11.904;2022-09-09T05:23:42;8.63;;;3.97;;
62574;SDS011;53112;45.602;11.904;2022-09-09T05:26:13;6.13;;;3.90;;
62574;SDS011;53112;45.602;11.904;2022-09-09T05:28:41;7.97;;;3.90;;
62574;SDS011;53112;45.602;11.904;2022-09-09T05:31:08;5.85;;;3.53;;
62574;SDS011;53112;45.602;11.904;2022-09-09T05:33:37;9.30;;;4.30;;
62574;SDS011;53112;45.602;11.904;2022-09-09T05:36:12;7.00;;;4.07;;
62574;SDS011;53112;45.602;11.904;2022-09-09T05:38:43;7.65;;;4.00;;
62574;SDS011;53112;45.602;11.904;2022-09-09T05:41:10;8.65;;;4.40;;
62574;SDS011;53112;45.602;11.904;2022-09-09T05:43:38;6.13;;;3.80;;
62574;SDS011;53112;45.602;11.904;2022-09-09T05:48:31;7.38;;;4.10;;
62574;SDS011;53112;45.602;11.904;2022-09-09T05:50:59;6.00;;;3.70;;
62574;SDS011;53112;45.602;11.904;2022-09-09T05:53:28;6.88;;;3.97;;
62574;SDS011;53112;45.602;11.904;2022-09-09T05:55:58;7.80;;;3.67;;
62574;SDS011;53112;45.602;11.904;2022-09-09T05:58:29;6.53;;;3.60;;
62574;SDS011;53112;45.602;11.904;2022-09-09T06:03:33;6.80;;;3.75;;
62574;SDS011;53112;45.602;11.904;2022-09-09T06:06:01;5.63;;;3.58;;
62574;SDS011;53112;45.602;11.904;2022-09-09T06:08:35;6.65;;;3.67;;
62574;SDS011;53112;45.602;11.904;2022-09-09T06:11:10;7.05;;;3.83;;
62574;SDS011;53112;45.602;11.904;2022-09-09T06:13:40;10.40;;;3.97;;
62574;SDS011;53112;45.602;11.904;2022-09-09T06:16:10;6.22;;;3.70;;
62574;SDS011;53112;45.602;11.904;2022-09-09T06:18:37;7.45;;;4.13;;
62574;SDS011;53112;45.602;11.904;2022-09-09T06:21:05;6.40;;;3.70;;
62574;SDS011;53112;45.602;11.904;2022-09-09T06:23:34;7.18;;;3.78;;
62574;SDS011;53112;45.602;11.904;2022-09-09T06:26:03;9.75;;;3.85;;
62574;SDS011;53112;45.602;11.904;2022-09-09T06:28:32;7.93;;;3.80;;
62574;SDS011;53112;45.602;11.904;2022-09-09T06:31:03;6.07;;;3.60;;
62574;SDS011;53112;45.602;11.904;2022-09-09T06:33:34;6.18;;;3.45;;
62574;SDS011;53112;45.602;11.904;2022-09-09T06:36:15;8.43;;;3.55;;
62574;SDS011;53112;45.602;11.904;2022-09-09T06:38:43;5.55;;;3.60;;
62574;SDS011;53112;45.602;11.904;2022-09-09T06:41:10;5.55;;;3.50;;
62574;SDS011;53112;45.602;11.904;2022-09-09T06:43:38;6.13;;;3.40;;
62574;SDS011;53112;45.602;11.904;2022-09-09T06:46:11;6.35;;;3.45;;
62574;SDS011;53112;45.602;11.904;2022-09-09T06:48:41;6.03;;;3.25;;
62574;SDS011;53112;45.602;11.904;2022-09-09T06:53:40;5.93;;;3.40;;
62574;SDS011;53112;45.602;11.904;2022-09-09T06:58:36;7.88;;;3.65;;
62574;SDS011;53112;45.602;11.904;2022-09-09T07:01:10;6.93;;;3.50;;
62574;SDS011;53112;45.602;11.904;2022-09-09T07:03:38;8.07;;;3.92;;
62574;SDS011;53112;45.602;11.904;2022-09-09T07:06:05;6.68;;;3.80;;
62574;SDS011;53112;45.602;11.904;2022-09-09T07:08:32;6.55;;;3.50;;
62574;SDS011;53112;45.602;11.904;2022-09-09T07:11:02;5.80;;;3.65;;
62574;SDS011;53112;45.602;11.904;2022-09-09T07:13:32;5.43;;;3.40;;
62574;SDS011;53112;45.602;11.904;2022-09-09T07:16:09;6.45;;;3.60;;
62574;SDS011;53112;45.602;11.904;2022-09-09T07:18:38;7.68;;;3.42;;
62574;SDS011;53112;45.602;11.904;2022-09-09T07:21:05;7.85;;;3.60;;
62574;SDS011;53112;45.602;11.904;2022-09-09T07:23:31;6.90;;;3.35;;
62574;SDS011;53112;45.602;11.904;2022-09-09T07:26:00;6.63;;;2.92;;
62574;SDS011;53112;45.602;11.904;2022-09-09T07:28:26;5.10;;;3.33;;
62574;SDS011;53112;45.602;11.904;2022-09-09T07:30:58;5.57;;;2.90;;
62574;SDS011;53112;45.602;11.904;2022-09-09T07:33:28;6.07;;;3.00;;
62574;SDS011;53112;45.602;11.904;2022-09-09T07:36:08;7.57;;;3.17;;
62574;SDS011;53112;45.602;11.904;2022-09-09T07:38:47;3.90;;;2.90;;
62574;SDS011;53112;45.602;11.904;2022-09-09T07:43:45;6.72;;;2.90;;
62574;SDS011;53112;45.602;11.904;2022-09-09T07:46:13;4.85;;;2.83;;
62574;SDS011;53112;45.602;11.904;2022-09-09T07:48:44;4.80;;;2.75;;
62574;SDS011;53112;45.602;11.904;2022-09-09T07:51:28;5.80;;;2.80;;
62574;SDS011;53112;45.602;11.904;2022-09-09T07:53:56;6.78;;;2.80;;
62574;SDS011;53112;45.602;11.904;2022-09-09T07:56:24;4.68;;;2.92;;
62574;SDS011;53112;45.602;11.904;2022-09-09T07:58:52;7.07;;;2.90;;
62574;SDS011;53112;45.602;11.904;2022-09-09T08:01:21;5.88;;;3.10;;
62574;SDS011;53112;45.602;11.904;2022-09-09T08:06:31;4.53;;;2.72;;
62574;SDS011;53112;45.602;11.904;2022-09-09T08:09:00;7.53;;;2.85;;
62574;SDS011;53112;45.602;11.904;2022-09-09T08:11:26;7.18;;;2.90;;
62574;SDS011;53112;45.602;11.904;2022-09-09T08:13:54;5.22;;;2.80;;
62574;SDS011;53112;45.602;11.904;2022-09-09T08:16:24;6.90;;;3.08;;
62574;SDS011;53112;45.602;11.904;2022-09-09T08:18:53;5.70;;;2.60;;
62574;SDS011;53112;45.602;11.904;2022-09-09T08:21:21;4.65;;;2.70;;
62574;SDS011;53112;45.602;11.904;2022-09-09T08:23:50;5.85;;;3.03;;
62574;SDS011;53112;45.602;11.904;2022-09-09T08:26:22;5.18;;;2.85;;
62574;SDS011;53112;45.602;11.904;2022-09-09T08:28:53;8.20;;;3.00;;
62574;SDS011;53112;45.602;11.904;2022-09-09T08:31:25;4.22;;;2.67;;
62574;SDS011;53112;45.602;11.904;2022-09-09T08:33:59;5.68;;;2.50;;
62574;SDS011;53112;45.602;11.904;2022-09-09T08:36:29;4.97;;;2.55;;
62574;SDS011;53112;45.602;11.904;2022-09-09T08:38:58;6.82;;;2.60;;
62574;SDS011;53112;45.602;11.904;2022-09-09T08:46:39;4.97;;;2.40;;
62574;SDS011;53112;45.602;11.904;2022-09-09T08:51:46;8.20;;;2.60;;
62574;SDS011;53112;45.602;11.904;2022-09-09T08:54:15;7.90;;;2.58;;
62574;SDS011;53112;45.602;11.904;2022-09-09T08:56:42;5.18;;;2.60;;
62574;SDS011;53112;45.602;11.904;2022-09-09T08:59:09;4.93;;;2.50;;
62574;SDS011;53112;45.602;11.904;2022-09-09T09:01:44;4.05;;;2.50;;
62574;SDS011;53112;45.602;11.904;2022-09-09T09:04:21;6.47;;;2.60;;
62574;SDS011;53112;45.602;11.904;2022-09-09T09:09:50;4.47;;;2.28;;
62574;SDS011;53112;45.602;11.904;2022-09-09T09:12:29;6.65;;;2.70;;
62574;SDS011;53112;45.602;11.904;2022-09-09T09:15:00;6.07;;;2.50;;
62574;SDS011;53112;45.602;11.904;2022-09-09T09:17:27;4.35;;;2.63;;
62574;SDS011;53112;45.602;11.904;2022-09-09T09:19:58;4.90;;;2.40;;
62574;SDS011;53112;45.602;11.904;2022-09-09T09:25:31;5.97;;;2.45;;
62574;SDS011;53112;45.602;11.904;2022-09-09T09:30:59;4.85;;;2.22;;
62574;SDS011;53112;45.602;11.904;2022-09-09T09:36:12;3.67;;;2.50;;
62574;SDS011;53112;45.602;11.904;2022-09-09T09:38:52;4.72;;;2.30;;
62574;SDS011;53112;45.602;11.904;2022-09-09T09:41:30;4.07;;;2.20;;
62574;SDS011;53112;45.602;11.904;2022-09-09T09:44:02;5.18;;;2.40;;
62574;SDS011;53112;45.602;11.904;2022-09-09T09:46:28;5.97;;;2.33;;
62574;SDS011;53112;45.602;11.904;2022-09-09T09:49:04;3.22;;;2.50;;
62574;SDS011;53112;45.602;11.904;2022-09-09T09:51:34;6.00;;;2.47;;
62574;SDS011;53112;45.602;11.904;2022-09-09T09:56:42;6.70;;;2.30;;
62574;SDS011;53112;45.602;11.904;2022-09-09T10:01:53;7.13;;;2.65;;
62574;SDS011;53112;45.602;11.904;2022-09-09T10:04:22;3.83;;;1.98;;
62574;SDS011;53112;45.602;11.904;2022-09-09T10:06:49;4.28;;;2.25;;
62574;SDS011;53112;45.602;11.904;2022-09-09T10:12:08;3.13;;;2.30;;
62574;SDS011;53112;45.602;11.904;2022-09-09T10:23:10;4.25;;;2.65;;
62574;SDS011;53112;45.602;11.904;2022-09-09T10:31:25;3.63;;;2.22;;
62574;SDS011;53112;45.602;11.904;2022-09-09T10:36:48;4.10;;;2.25;;
62574;SDS011;53112;45.602;11.904;2022-09-09T10:50:13;3.83;;;2.17;;
62574;SDS011;53112;45.602;11.904;2022-09-09T10:52:48;5.07;;;2.38;;
62574;SDS011;53112;45.602;11.904;2022-09-09T10:55:26;2.97;;;2.10;;
62574;SDS011;53112;45.602;11.904;2022-09-09T10:58:02;4.65;;;2.13;;
62574;SDS011;53112;45.602;11.904;2022-09-09T11:00:38;7.18;;;2.50;;
62574;SDS011;53112;45.602;11.904;2022-09-09T11:03:09;4.13;;;2.45;;
62574;SDS011;53112;45.602;11.904;2022-09-09T11:05:49;4.10;;;2.10;;
62574;SDS011;53112;45.602;11.904;2022-09-09T11:08:21;4.25;;;2.10;;
62574;SDS011;53112;45.602;11.904;2022-09-09T11:11:02;4.50;;;2.17;;
62574;SDS011;53112;45.602;11.904;2022-09-09T11:19:13;3.35;;;2.08;;
62574;SDS011;53112;45.602;11.904;2022-09-09T11:21:47;4.90;;;2.38;;
62574;SDS011;53112;45.602;11.904;2022-09-09T11:26:49;6.28;;;2.53;;
62574;SDS011;53112;45.602;11.904;2022-09-09T11:40:34;7.60;;;2.22;;
62574;SDS011;53112;45.602;11.904;2022-09-09T11:43:01;5.28;;;2.50;;
62574;SDS011;53112;45.602;11.904;2022-09-09T11:45:38;5.03;;;2.40;;
62574;SDS011;53112;45.602;11.904;2022-09-09T11:48:29;8.40;;;2.30;;
62574;SDS011;53112;45.602;11.904;2022-09-09T11:51:00;4.78;;;2.50;;
62574;SDS011;53112;45.602;11.904;2022-09-09T11:53:30;6.30;;;2.40;;
62574;SDS011;53112;45.602;11.904;2022-09-09T11:56:05;4.15;;;2.30;;
62574;SDS011;53112;45.602;11.904;2022-09-09T11:58:38;3.92;;;2.28;;
62574;SDS011;53112;45.602;11.904;2022-09-09T12:01:24;3.80;;;2.17;;
62574;SDS011;53112;45.602;11.904;2022-09-09T12:04:01;4.78;;;2.30;;
62574;SDS011;53112;45.602;11.904;2022-09-09T12:06:31;3.47;;;2.30;;
62574;SDS011;53112;45.602;11.904;2022-09-09T12:09:12;3.97;;;2.40;;
62574;SDS011;53112;45.602;11.904;2022-09-09T12:11:44;4.88;;;2.40;;
62574;SDS011;53112;45.602;11.904;2022-09-09T12:14:20;5.40;;;2.20;;
62574;SDS011;53112;45.602;11.904;2022-09-09T12:17:23;3.55;;;2.38;;
62574;SDS011;53112;45.602;11.904;2022-09-09T12:25:34;3.08;;;2.05;;
62574;SDS011;53112;45.602;11.904;2022-09-09T12:28:20;5.20;;;2.40;;
62574;SDS011;53112;45.602;11.904;2022-09-09T12:30:52;4.45;;;2.50;;
62574;SDS011;53112;45.602;11.904;2022-09-09T12:33:24;5.68;;;2.50;;
62574;SDS011;53112;45.602;11.904;2022-09-09T12:35:58;4.68;;;2.40;;
62574;SDS011;53112;45.602;11.904;2022-09-09T12:38:36;4.05;;;2.50;;
62574;SDS011;53112;45.602;11.904;2022-09-09T12:41:04;4.43;;;2.30;;
62574;SDS011;53112;45.602;11.904;2022-09-09T12:43:31;5.15;;;2.63;;
62574;SDS011;53112;45.602;11.904;2022-09-09T12:45:59;4.80;;;2.50;;
62574;SDS011;53112;45.602;11.904;2022-09-09T12:48:41;5.18;;;2.40;;
62574;SDS011;53112;45.602;11.904;2022-09-09T12:54:03;5.22;;;2.53;;
62574;SDS011;53112;45.602;11.904;2022-09-09T12:56:30;8.63;;;2.50;;
62574;SDS011;53112;45.602;11.904;2022-09-09T12:58:58;7.85;;;3.10;;
62574;SDS011;53112;45.602;11.904;2022-09-09T13:01:30;8.20;;;2.63;;
62574;SDS011;53112;45.602;11.904;2022-09-09T13:04:00;6.65;;;1.95;;
62574;SDS011;53112;45.602;11.904;2022-09-09T13:06:27;4.78;;;2.03;;
62574;SDS011;53112;45.602;11.904;2022-09-09T13:08:56;4.45;;;1.52;;
62574;SDS011;53112;45.602;11.904;2022-09-09T13:11:46;3.72;;;1.58;;
62574;SDS011;53112;45.602;11.904;2022-09-09T13:14:19;1.33;;;0.98;;
62574;SDS011;53112;45.602;11.904;2022-09-09T13:16:55;1.35;;;1.15;;
62574;SDS011;53112;45.602;11.904;2022-09-09T13:19:23;1.20;;;1.10;;
62574;SDS011;53112;45.602;11.904;2022-09-09T13:21:54;1.52;;;1.20;;
62574;SDS011;53112;45.602;11.904;2022-09-09T13:24:33;4.00;;;1.42;;
62574;SDS011;53112;45.602;11.904;2022-09-09T13:29:27;2.75;;;1.40;;
62574;SDS011;53112;45.602;11.904;2022-09-09T13:32:03;2.75;;;1.67;;
62574;SDS011;53112;45.602;11.904;2022-09-09T13:34:32;1.73;;;1.48;;
62574;SDS011;53112;45.602;11.904;2022-09-09T13:37:07;2.65;;;1.55;;
62574;SDS011;53112;45.602;11.904;2022-09-09T13:39:50;1.92;;;1.35;;
62574;SDS011;53112;45.602;11.904;2022-09-09T13:42:28;3.20;;;1.63;;
62574;SDS011;53112;45.602;11.904;2022-09-09T13:44:56;1.92;;;1.55;;
62574;SDS011;53112;45.602;11.904;2022-09-09T13:47:29;2.53;;;1.70;;
62574;SDS011;53112;45.602;11.904;2022-09-09T13:52:56;4.85;;;1.90;;
62574;SDS011;53112;45.602;11.904;2022-09-09T13:55:24;3.55;;;1.80;;
62574;SDS011;53112;45.602;11.904;2022-09-09T13:57:52;6.75;;;2.30;;
62574;SDS011;53112;45.602;11.904;2022-09-09T14:00:23;3.63;;;2.13;;
62574;SDS011;53112;45.602;11.904;2022-09-09T14:02:50;4.32;;;2.72;;
62574;SDS011;53112;45.602;11.904;2022-09-09T14:05:17;4.90;;;2.90;;
62574;SDS011;53112;45.602;11.904;2022-09-09T14:07:44;5.38;;;2.80;;
62574;SDS011;53112;45.602;11.904;2022-09-09T14:10:11;5.15;;;2.58;;
62574;SDS011;53112;45.602;11.904;2022-09-09T14:12:38;4.75;;;2.30;;
62574;SDS011;53112;45.602;11.904;2022-09-09T14:15:04;4.53;;;2.30;;
62574;SDS011;53112;45.602;11.904;2022-09-09T14:17:32;3.25;;;2.03;;
62574;SDS011;53112;45.602;11.904;2022-09-09T14:20:02;3.38;;;2.05;;
62574;SDS011;53112;45.602;11.904;2022-09-09T14:22:30;3.08;;;1.85;;
62574;SDS011;53112;45.602;11.904;2022-09-09T14:24:56;2.55;;;1.75;;
62574;SDS011;53112;45.602;11.904;2022-09-09T14:27:22;4.10;;;1.80;;
62574;SDS011;53112;45.602;11.904;2022-09-09T14:29:51;3.00;;;1.80;;
62574;SDS011;53112;45.602;11.904;2022-09-09T14:32:17;3.30;;;2.10;;
62574;SDS011;53112;45.602;11.904;2022-09-09T14:34:43;4.25;;;2.10;;
62574;SDS011;53112;45.602;11.904;2022-09-09T14:37:09;3.25;;;2.20;;
62574;SDS011;53112;45.602;11.904;2022-09-09T14:39:35;2.63;;;2.10;;
62574;SDS011;53112;45.602;11.904;2022-09-09T14:42:01;4.00;;;2.10;;
62574;SDS011;53112;45.602;11.904;2022-09-09T14:44:27;5.05;;;2.08;;
62574;SDS011;53112;45.602;11.904;2022-09-09T14:46:54;3.53;;;2.00;;
62574;SDS011;53112;45.602;11.904;2022-09-09T14:49:20;4.20;;;1.98;;
62574;SDS011;53112;45.602;11.904;2022-09-09T14:51:45;3.55;;;2.10;;
62574;SDS011;53112;45.602;11.904;2022-09-09T14:54:12;5.07;;;2.10;;
62574;SDS011;53112;45.602;11.904;2022-09-09T14:56:40;3.17;;;2.20;;
62574;SDS011;53112;45.602;11.904;2022-09-09T14:59:05;2.55;;;1.85;;
62574;SDS011;53112;45.602;11.904;2022-09-09T15:01:31;4.75;;;1.90;;
62574;SDS011;53112;45.602;11.904;2022-09-09T15:03:58;5.18;;;1.90;;
62574;SDS011;53112;45.602;11.904;2022-09-09T15:06:27;2.90;;;1.60;;
62574;SDS011;53112;45.602;11.904;2022-09-09T15:08:55;3.90;;;2.05;;
62574;SDS011;53112;45.602;11.904;2022-09-09T15:11:23;2.80;;;1.80;;
62574;SDS011;53112;45.602;11.904;2022-09-09T15:13:51;3.85;;;1.90;;
62574;SDS011;53112;45.602;11.904;2022-09-09T15:16:20;2.85;;;1.70;;
62574;SDS011;53112;45.602;11.904;2022-09-09T15:18:50;3.55;;;2.00;;
62574;SDS011;53112;45.602;11.904;2022-09-09T15:21:19;4.03;;;2.00;;
62574;SDS011;53112;45.602;11.904;2022-09-09T15:23:48;3.85;;;2.00;;
62574;SDS011;53112;45.602;11.904;2022-09-09T15:26:15;3.85;;;1.65;;
62574;SDS011;53112;45.602;11.904;2022-09-09T15:28:42;2.42;;;1.70;;
62574;SDS011;53112;45.602;11.904;2022-09-09T15:31:11;2.38;;;1.70;;
62574;SDS011;53112;45.602;11.904;2022-09-09T15:33:51;3.38;;;1.70;;
62574;SDS011;53112;45.602;11.904;2022-09-09T15:36:26;3.30;;;1.75;;
62574;SDS011;53112;45.602;11.904;2022-09-09T15:38:57;3.35;;;1.45;;
62574;SDS011;53112;45.602;11.904;2022-09-09T15:41:24;2.78;;;1.52;;
62574;SDS011;53112;45.602;11.904;2022-09-09T15:43:51;2.33;;;1.70;;
62574;SDS011;53112;45.602;11.904;2022-09-09T15:46:24;2.15;;;1.70;;
62574;SDS011;53112;45.602;11.904;2022-09-09T15:51:29;2.80;;;1.60;;
62574;SDS011;53112;45.602;11.904;2022-09-09T15:53:56;3.13;;;2.05;;
62574;SDS011;53112;45.602;11.904;2022-09-09T15:56:23;3.92;;;2.10;;
62574;SDS011;53112;45.602;11.904;2022-09-09T15:58:52;3.78;;;2.20;;
62574;SDS011;53112;45.602;11.904;2022-09-09T16:01:20;3.38;;;1.83;;
62574;SDS011;53112;45.602;11.904;2022-09-09T16:03:46;2.22;;;1.33;;
62574;SDS011;53112;45.602;11.904;2022-09-09T16:06:15;2.85;;;1.80;;
62574;SDS011;53112;45.602;11.904;2022-09-09T16:08:47;2.63;;;1.75;;
62574;SDS011;53112;45.602;11.904;2022-09-09T16:13:48;3.45;;;1.90;;
62574;SDS011;53112;45.602;11.904;2022-09-09T16:16:16;4.45;;;1.60;;
62574;SDS011;53112;45.602;11.904;2022-09-09T16:18:45;3.05;;;1.90;;
62574;SDS011;53112;45.602;11.904;2022-09-09T16:21:16;5.82;;;1.60;;
62574;SDS011;53112;45.602;11.904;2022-09-09T16:23:59;2.60;;;1.90;;
62574;SDS011;53112;45.602;11.904;2022-09-09T16:26:28;3.00;;;2.03;;
62574;SDS011;53112;45.602;11.904;2022-09-09T16:28:56;2.70;;;1.70;;
62574;SDS011;53112;45.602;11.904;2022-09-09T16:31:24;4.28;;;1.90;;
62574;SDS011;53112;45.602;11.904;2022-09-09T16:33:51;4.20;;;1.90;;
62574;SDS011;53112;45.602;11.904;2022-09-09T16:36:19;3.88;;;1.70;;
62574;SDS011;53112;45.602;11.904;2022-09-09T16:38:46;2.60;;;1.80;;
62574;SDS011;53112;45.602;11.904;2022-09-09T16:41:13;3.65;;;1.75;;
62574;SDS011;53112;45.602;11.904;2022-09-09T16:43:40;3.47;;;1.95;;
62574;SDS011;53112;45.602;11.904;2022-09-09T16:46:11;2.55;;;1.92;;
62574;SDS011;53112;45.602;11.904;2022-09-09T16:48:44;2.90;;;1.63;;
62574;SDS011;53112;45.602;11.904;2022-09-09T16:51:12;2.45;;;1.70;;
62574;SDS011;53112;45.602;11.904;2022-09-09T16:53:40;2.00;;;1.80;;
62574;SDS011;53112;45.602;11.904;2022-09-09T16:56:11;2.53;;;1.80;;
62574;SDS011;53112;45.602;11.904;2022-09-09T16:58:39;3.28;;;1.70;;
62574;SDS011;53112;45.602;11.904;2022-09-09T17:01:08;2.70;;;1.80;;
62574;SDS011;53112;45.602;11.904;2022-09-09T17:03:36;2.28;;;1.77;;
62574;SDS011;53112;45.602;11.904;2022-09-09T17:06:03;3.25;;;1.80;;
62574;SDS011;53112;45.602;11.904;2022-09-09T17:08:35;2.10;;;1.80;;
62574;SDS011;53112;45.602;11.904;2022-09-09T17:11:01;2.25;;;1.60;;
62574;SDS011;53112;45.602;11.904;2022-09-09T17:13:27;1.77;;;1.50;;
62574;SDS011;53112;45.602;11.904;2022-09-09T17:15:52;2.65;;;1.80;;
62574;SDS011;53112;45.602;11.904;2022-09-09T17:18:18;2.58;;;1.80;;
62574;SDS011;53112;45.602;11.904;2022-09-09T17:20:46;3.03;;;1.98;;
62574;SDS011;53112;45.602;11.904;2022-09-09T17:23:12;3.47;;;1.80;;